Time;durP1;ratioP1;P1;durP2;ratioP2;P2;SDS_P1;SDS_P2;PMS_P1;PMS_P2;Temp;Humidity;BMP_temperature;BMP_pressure;BME280_temperature;BME280_humidity;BME280_pressure;Samples;Min_cycle;Max_cycle;Signal;HPM_P1;HPM_P2
2023/01/20 00:01:25;;;;;;;22.40;15.23;;;18.90;91.30;;;;;;1889319;75;21141;-86
2023/01/20 00:03:58;;;;;;;23.57;15.25;;;18.90;91.30;;;;;;1883374;75;21067;-85
2023/01/20 00:06:29;;;;;;;21.45;15.43;;;18.90;91.10;;;;;;1911336;73;21107;-85
2023/01/20 00:09:02;;;;;;;23.35;16.05;;;18.90;91.10;;;;;;1871627;75;21158;-84
2023/01/20 00:11:33;;;;;;;23.45;15.85;;;18.90;91.10;;;;;;1896147;75;21188;-85
2023/01/20 00:14:04;;;;;;;24.55;14.43;;;19.00;91.10;;;;;;1852478;77;21098;-85
2023/01/20 00:16:35;;;;;;;22.70;14.87;;;19.00;91.40;;;;;;1880564;76;21145;-86
2023/01/20 00:19:06;;;;;;;21.52;14.05;;;19.00;91.00;;;;;;1842703;77;21094;-85
2023/01/20 00:21:37;;;;;;;21.33;13.98;;;19.00;91.00;;;;;;1889033;75;21278;-85
2023/01/20 00:24:08;;;;;;;19.67;13.48;;;19.00;90.90;;;;;;1881099;75;21128;-85
2023/01/20 00:26:39;;;;;;;18.00;12.78;;;19.00;90.90;;;;;;1874323;76;21203;-84
2023/01/20 00:29:10;;;;;;;23.77;13.65;;;19.10;90.90;;;;;;1906640;74;21119;-85
2023/01/20 00:31:41;;;;;;;22.27;13.70;;;19.10;90.70;;;;;;1883886;75;21165;-86
2023/01/20 00:34:12;;;;;;;21.82;13.72;;;19.10;90.60;;;;;;1851816;77;21608;-85
2023/01/20 00:36:43;;;;;;;23.87;14.55;;;19.10;90.40;;;;;;1876783;75;21078;-85
2023/01/20 00:39:14;;;;;;;22.73;14.50;;;19.10;90.20;;;;;;1887139;75;21506;-85
2023/01/20 00:41:44;;;;;;;16.70;10.90;;;19.20;90.20;;;;;;1882369;75;21057;-84
2023/01/20 00:44:15;;;;;;;18.77;12.73;;;19.20;90.10;;;;;;1892409;75;21185;-82
2023/01/20 00:46:47;;;;;;;17.42;11.25;;;19.20;90.00;;;;;;1880599;75;21545;-85
2023/01/20 00:49:17;;;;;;;20.20;13.40;;;19.30;89.80;;;;;;1880309;75;21065;-85
2023/01/20 00:51:48;;;;;;;21.77;12.05;;;19.30;89.80;;;;;;1875975;75;21135;-84
2023/01/20 00:54:19;;;;;;;15.50;11.53;;;19.30;89.50;;;;;;1899339;73;21139;-85
2023/01/20 00:56:50;;;;;;;25.90;10.98;;;19.30;89.00;;;;;;1856705;77;21203;-86
2023/01/20 00:59:21;;;;;;;22.60;11.60;;;19.40;88.60;;;;;;1902831;75;21133;-85
2023/01/20 01:01:51;;;;;;;15.15;10.93;;;19.40;88.20;;;;;;1865461;75;21091;-84
2023/01/20 01:04:23;;;;;;;18.60;12.30;;;19.40;88.30;;;;;;1899888;75;21726;-85
2023/01/20 01:06:54;;;;;;;22.45;13.00;;;19.40;88.30;;;;;;1865452;76;21093;-85
2023/01/20 01:09:25;;;;;;;15.40;11.70;;;19.40;89.30;;;;;;1847624;76;21139;-85
2023/01/20 01:11:56;;;;;;;20.12;12.05;;;19.50;88.30;;;;;;1887131;75;21133;-87
2023/01/20 01:14:27;;;;;;;19.42;11.33;;;19.50;88.20;;;;;;1875740;74;21232;-86
2023/01/20 01:16:58;;;;;;;19.07;12.03;;;19.60;88.20;;;;;;1911490;73;21150;-85
2023/01/20 01:19:28;;;;;;;20.43;13.20;;;19.60;88.30;;;;;;1861245;77;21199;-86
2023/01/20 01:21:59;;;;;;;14.60;9.75;;;19.60;88.30;;;;;;1889307;74;21069;-86
2023/01/20 01:24:30;;;;;;;16.10;10.28;;;19.60;88.10;;;;;;1868078;75;21215;-86
2023/01/20 01:27:03;;;;;;;18.35;10.80;;;19.70;87.80;;;;;;1905749;73;21143;-85
2023/01/20 01:29:33;;;;;;;13.90;8.28;;;19.80;87.70;;;;;;1908770;74;21087;-85
2023/01/20 01:32:04;;;;;;;13.70;9.78;;;19.80;87.20;;;;;;1904317;75;21138;-85
2023/01/20 01:34:35;;;;;;;12.25;8.43;;;19.80;87.00;;;;;;1886308;75;21522;-84
2023/01/20 01:37:06;;;;;;;14.47;9.35;;;19.80;86.80;;;;;;1876503;75;21106;-86
2023/01/20 01:39:37;;;;;;;14.40;9.78;;;19.80;87.10;;;;;;1888151;75;21153;-84
2023/01/20 01:42:15;;;;;;;14.38;9.83;;;19.80;86.80;;;;;;1889335;75;21246;-85
2023/01/20 01:45:11;;;;;;;12.60;7.75;;;19.80;86.70;;;;;;1886968;75;21238;-85
2023/01/20 01:47:46;;;;;;;;;;;19.90;86.70;;;;;;1883196;75;21150;-86
2023/01/20 01:50:28;;;;;;;12.13;8.78;;;19.90;86.70;;;;;;1861389;75;20230;-86
2023/01/20 01:53:00;;;;;;;14.87;10.03;;;20.00;86.50;;;;;;1891012;73;21131;-85
2023/01/20 01:55:33;;;;;;;14.50;8.73;;;20.00;86.50;;;;;;1912044;73;21149;-70
2023/01/20 01:58:06;;;;;;;14.53;8.05;;;20.10;86.20;;;;;;1883229;75;21605;-70
2023/01/20 02:00:38;;;;;;;13.88;8.88;;;20.20;86.00;;;;;;1911266;73;21536;-68
2023/01/20 02:03:11;;;;;;;14.10;8.90;;;20.20;85.60;;;;;;1879844;75;21207;-70
2023/01/20 02:05:43;;;;;;;11.55;6.65;;;20.30;85.50;;;;;;1896574;74;21135;-68
2023/01/20 02:08:15;;;;;;;16.02;7.92;;;20.30;84.30;;;;;;1880157;75;21059;-69
2023/01/20 02:10:46;;;;;;;14.18;9.00;;;20.40;84.40;;;;;;1885343;75;21081;-68
2023/01/20 02:13:17;;;;;;;12.58;8.68;;;20.40;84.10;;;;;;1897715;74;21158;-69
2023/01/20 02:16:00;;;;;;;62.38;13.22;;;20.50;83.30;;;;;;1891806;74;21192;-69
2023/01/20 02:18:37;;;;;;;13.83;7.72;;;20.50;83.50;;;;;;1796727;73;21684;-70
2023/01/20 02:21:23;;;;;;;16.15;9.08;;;20.50;83.40;;;;;;1914743;73;21122;-69
2023/01/20 02:24:21;;;;;;;17.70;9.43;;;20.50;83.20;;;;;;1867564;75;21082;-69
2023/01/20 02:27:04;;;;;;;14.73;9.13;;;20.60;83.00;;;;;;1902501;74;21656;-69
2023/01/20 02:29:49;;;;;;;14.38;8.23;;;20.70;83.20;;;;;;1897417;74;21148;-70
2023/01/20 02:32:46;;;;;;;18.25;8.80;;;20.70;82.70;;;;;;1892977;74;21152;-70
2023/01/20 02:35:26;;;;;;;11.53;7.78;;;20.70;82.70;;;;;;1879158;75;21606;-69
2023/01/20 02:38:08;;;;;;;13.15;7.80;;;20.80;82.50;;;;;;1867967;75;21155;-69
2023/01/20 02:40:50;;;;;;;10.72;7.62;;;20.80;82.40;;;;;;1907976;73;21151;-69
2023/01/20 02:43:40;;;;;;;11.25;7.65;;;20.90;82.20;;;;;;1863393;75;21143;-70
2023/01/20 02:46:13;;;;;;;10.95;8.20;;;20.90;82.00;;;;;;1851404;76;21185;-68
2023/01/20 02:49:20;;;;;;;11.12;7.40;;;21.00;82.10;;;;;;1872472;75;21174;-69
2023/01/20 02:52:00;;;;;;;13.10;7.17;;;21.00;82.60;;;;;;1875563;75;21430;-68
2023/01/20 02:54:33;;;;;;;10.53;7.67;;;21.10;81.70;;;;;;1871494;75;21130;-69
2023/01/20 02:57:06;;;;;;;16.52;8.25;;;21.10;82.00;;;;;;1843537;76;21159;-70
2023/01/20 02:59:41;;;;;;;11.12;7.70;;;21.20;81.30;;;;;;1868554;75;21550;-70
2023/01/20 03:02:17;;;;;;;14.20;8.48;;;21.20;81.40;;;;;;1857979;75;21164;-69
2023/01/20 03:04:54;;;;;;;14.70;7.55;;;21.30;81.60;;;;;;1852019;76;21178;-70
2023/01/20 03:07:29;;;;;;;13.03;8.30;;;21.30;81.60;;;;;;1858321;75;21601;-69
2023/01/20 03:10:02;;;;;;;11.40;7.65;;;21.40;81.50;;;;;;1856233;75;21208;-69
2023/01/20 03:12:51;;;;;;;14.00;9.03;;;21.50;81.00;;;;;;1859034;75;21186;-70
2023/01/20 03:15:25;;;;;;;11.45;7.65;;;21.60;80.90;;;;;;1845672;76;21169;-71
2023/01/20 03:17:58;;;;;;;12.95;7.70;;;21.70;80.50;;;;;;1869684;75;21228;-70
2023/01/20 03:20:30;;;;;;;10.55;7.53;;;21.80;80.30;;;;;;1857116;76;21228;-70
2023/01/20 03:23:01;;;;;;;10.72;7.37;;;21.90;80.10;;;;;;1884915;75;21111;-70
2023/01/20 03:25:33;;;;;;;12.33;7.28;;;22.00;79.70;;;;;;1873676;75;21145;-70
2023/01/20 03:28:04;;;;;;;11.15;6.90;;;22.00;79.90;;;;;;1849996;76;21080;-70
2023/01/20 03:30:44;;;;;;;9.50;6.70;;;22.10;78.50;;;;;;1863179;76;21164;-70
2023/01/20 03:33:17;;;;;;;11.05;7.87;;;22.30;78.00;;;;;;1854894;76;21059;-70
2023/01/20 03:35:49;;;;;;;17.32;8.25;;;22.40;77.20;;;;;;1867136;75;21208;-71
2023/01/20 03:38:21;;;;;;;11.12;7.22;;;22.50;77.30;;;;;;1846221;76;21272;-69
2023/01/20 03:41:03;;;;;;;13.55;7.67;;;22.60;77.00;;;;;;1853231;75;21257;-69
2023/01/20 03:43:41;;;;;;;11.05;7.87;;;22.70;76.90;;;;;;1845393;76;21156;-71
2023/01/20 03:46:17;;;;;;;12.10;7.65;;;22.70;76.50;;;;;;1835731;77;21743;-69
2023/01/20 03:48:56;;;;;;;11.83;7.22;;;22.80;77.40;;;;;;1842742;77;21688;-70
2023/01/20 03:51:36;;;;;;;14.65;7.00;;;22.90;76.00;;;;;;1845182;76;21793;-69
2023/01/20 03:54:10;;;;;;;10.70;7.33;;;23.00;75.80;;;;;;1851383;76;21677;-70
2023/01/20 03:56:49;;;;;;;10.10;7.25;;;23.00;75.60;;;;;;1847314;76;21146;-69
2023/01/20 03:59:26;;;;;;;13.03;7.15;;;23.10;75.20;;;;;;1824674;76;21232;-69
2023/01/20 04:02:00;;;;;;;9.43;7.10;;;23.20;74.50;;;;;;1845138;77;21220;-70
2023/01/20 04:04:34;;;;;;;13.85;7.50;;;23.20;74.60;;;;;;1848416;77;21135;-69
2023/01/20 04:07:10;;;;;;;8.25;6.72;;;23.40;75.10;;;;;;1849986;76;21075;-70
2023/01/20 04:09:46;;;;;;;12.25;7.60;;;23.50;74.00;;;;;;1830924;76;21566;-69
2023/01/20 04:12:20;;;;;;;10.43;7.15;;;23.60;74.00;;;;;;1841273;76;21202;-70
2023/01/20 04:14:52;;;;;;;9.78;7.17;;;23.70;73.60;;;;;;1842963;76;21215;-69
2023/01/20 04:17:30;;;;;;;16.15;8.23;;;23.80;73.40;;;;;;1841265;76;21138;-69
2023/01/20 04:20:07;;;;;;;13.98;8.95;;;23.90;73.40;;;;;;1853977;75;21077;-70
2023/01/20 04:22:53;;;;;;;10.55;6.90;;;24.00;71.80;;;;;;1848586;76;21153;-70
2023/01/20 04:25:29;;;;;;;9.33;6.70;;;24.20;71.50;;;;;;1854467;76;21743;-71
2023/01/20 04:28:04;;;;;;;13.80;6.45;;;24.30;70.20;;;;;;1843837;76;21946;-71
2023/01/20 04:30:36;;;;;;;11.30;6.90;;;24.40;70.00;;;;;;1845561;76;21190;-72
2023/01/20 04:33:18;;;;;;;15.30;6.50;;;24.50;69.90;;;;;;1834735;76;21504;-71
2023/01/20 04:35:52;;;;;;;8.88;6.03;;;24.60;70.60;;;;;;1849977;76;21071;-70
2023/01/20 04:38:23;;;;;;;12.43;5.85;;;24.80;70.30;;;;;;1837667;76;21190;-70
2023/01/20 04:40:54;;;;;;;10.48;6.03;;;24.80;68.70;;;;;;1837099;76;21167;-69
2023/01/20 04:43:25;;;;;;;11.50;6.17;;;24.90;68.20;;;;;;1861757;75;21134;-70
2023/01/20 04:45:57;;;;;;;9.48;6.47;;;25.00;67.00;;;;;;1862282;75;21647;-69
2023/01/20 04:48:28;;;;;;;12.60;5.83;;;25.00;67.30;;;;;;1842649;76;21185;-69
2023/01/20 04:51:04;;;;;;;9.73;5.87;;;25.10;66.90;;;;;;1854865;76;21164;-70
2023/01/20 04:53:35;;;;;;;8.83;5.70;;;25.10;67.00;;;;;;1872892;75;21755;-70
2023/01/20 04:56:14;;;;;;;8.90;5.25;;;25.10;66.70;;;;;;1849780;76;21190;-69
2023/01/20 04:58:46;;;;;;;9.85;5.10;;;25.20;65.40;;;;;;1818923;76;21093;-70
2023/01/20 05:01:17;;;;;;;7.47;5.05;;;25.30;65.60;;;;;;1836724;76;21064;-69
2023/01/20 05:03:48;;;;;;;8.58;5.45;;;25.30;66.20;;;;;;1860504;76;21145;-70
2023/01/20 05:06:19;;;;;;;12.53;6.17;;;25.30;65.80;;;;;;1852079;75;21066;-70
2023/01/20 05:08:50;;;;;;;8.10;5.33;;;25.30;66.10;;;;;;1851354;75;21090;-70
2023/01/20 05:11:21;;;;;;;10.70;6.15;;;25.40;65.80;;;;;;1846768;76;21845;-70
2023/01/20 05:13:52;;;;;;;11.93;6.75;;;25.50;67.30;;;;;;1863569;75;21122;-69
2023/01/20 05:16:24;;;;;;;10.53;5.97;;;25.60;65.70;;;;;;1858413;76;21144;-69
2023/01/20 05:18:55;;;;;;;11.38;6.40;;;25.70;64.30;;;;;;1855752;76;21192;-69
2023/01/20 05:21:26;;;;;;;8.55;6.03;;;25.80;64.30;;;;;;1854462;76;21606;-69
2023/01/20 05:23:57;;;;;;;8.43;6.35;;;25.90;64.30;;;;;;1824369;76;21149;-68
2023/01/20 05:26:28;;;;;;;9.85;7.35;;;26.00;64.40;;;;;;1839544;76;21099;-69
2023/01/20 05:28:59;;;;;;;10.95;6.67;;;26.00;64.00;;;;;;1873204;75;21126;-69
2023/01/20 05:31:30;;;;;;;10.38;6.35;;;26.00;63.50;;;;;;1855861;75;21086;-69
2023/01/20 05:34:04;;;;;;;9.75;6.12;;;26.10;63.80;;;;;;1844259;76;21086;-69
2023/01/20 05:36:35;;;;;;;8.40;6.10;;;26.10;63.90;;;;;;1868386;75;21081;-70
2023/01/20 05:39:06;;;;;;;10.63;5.87;;;26.10;63.90;;;;;;1860363;76;21757;-69
2023/01/20 05:41:37;;;;;;;9.58;6.20;;;26.20;63.20;;;;;;1852835;76;21786;-70
2023/01/20 05:44:08;;;;;;;7.72;5.37;;;26.20;63.50;;;;;;1882531;74;21102;-69
2023/01/20 05:46:39;;;;;;;9.35;6.12;;;26.20;63.30;;;;;;1836646;77;21203;-69
2023/01/20 05:49:12;;;;;;;10.63;6.45;;;26.30;62.90;;;;;;1861143;75;21137;-69
2023/01/20 05:51:45;;;;;;;8.35;6.28;;;26.40;63.40;;;;;;1874200;75;21126;-69
2023/01/20 05:54:17;;;;;;;9.43;5.62;;;26.50;62.70;;;;;;1875380;74;22307;-69
2023/01/20 05:56:49;;;;;;;14.15;6.00;;;26.60;62.30;;;;;;1887287;74;22187;-70
2023/01/20 05:59:20;;;;;;;10.55;6.10;;;26.70;62.00;;;;;;1867599;75;21044;-71
2023/01/20 06:01:51;;;;;;;7.35;6.10;;;26.90;61.40;;;;;;1883602;75;21182;-71
2023/01/20 06:04:23;;;;;;;8.90;5.97;;;27.00;61.20;;;;;;1858371;75;21563;-71
2023/01/20 06:06:55;;;;;;;9.75;5.92;;;27.10;61.00;;;;;;1874389;74;21620;-71
2023/01/20 06:09:27;;;;;;;8.80;5.85;;;27.20;60.60;;;;;;1877775;75;21524;-71
2023/01/20 06:11:57;;;;;;;9.38;5.28;;;27.30;60.50;;;;;;1868236;74;21138;-72
2023/01/20 06:14:28;;;;;;;8.63;5.05;;;27.30;60.30;;;;;;1860872;75;21166;-71
2023/01/20 06:17:00;;;;;;;6.83;5.30;;;27.30;60.20;;;;;;1873234;75;21327;-69
2023/01/20 06:19:31;;;;;;;8.68;5.47;;;27.40;60.00;;;;;;1862446;75;21140;-70
2023/01/20 06:22:03;;;;;;;8.03;5.37;;;27.40;60.00;;;;;;1874939;75;22200;-71
2023/01/20 06:24:34;;;;;;;11.90;5.85;;;27.40;60.30;;;;;;1864373;75;21170;-71
2023/01/20 06:27:09;;;;;;;8.38;6.25;;;27.50;60.00;;;;;;1874197;75;21788;-71
2023/01/20 06:29:50;;;;;;;8.90;6.10;;;27.50;60.60;;;;;;1841788;76;21259;-70
2023/01/20 06:32:27;;;;;;;10.35;6.00;;;27.60;59.40;;;;;;1873610;74;21111;-69
2023/01/20 06:35:03;;;;;;;8.65;5.05;;;27.60;60.90;;;;;;1893174;74;21618;-70
2023/01/20 06:37:40;;;;;;;9.15;5.87;;;27.60;58.80;;;;;;1877467;74;21232;-70
2023/01/20 06:40:09;;;;;;;9.35;4.97;;;27.60;59.10;;;;;;1865428;75;21247;-69
2023/01/20 06:42:41;;;;;;;10.75;5.72;;;27.60;58.80;;;;;;1860008;75;21102;-69
2023/01/20 06:45:16;;;;;;;7.17;5.03;;;27.50;59.00;;;;;;1882012;74;21086;-72
2023/01/20 06:47:50;;;;;;;12.00;5.58;;;27.50;59.10;;;;;;1855705;76;21166;-70
2023/01/20 06:50:21;;;;;;;6.58;4.80;;;27.50;59.40;;;;;;1878905;73;21078;-71
2023/01/20 06:52:53;;;;;;;8.58;5.45;;;27.50;59.80;;;;;;1877108;74;21158;-69
2023/01/20 06:55:25;;;;;;;6.62;4.65;;;27.40;59.10;;;;;;1872980;74;21082;-68
2023/01/20 06:57:56;;;;;;;9.60;5.37;;;27.30;58.90;;;;;;1869349;75;21141;-71
2023/01/20 07:00:27;;;;;;;9.93;5.47;;;27.30;59.60;;;;;;1882646;73;21302;-71
2023/01/20 07:03:00;;;;;;;10.72;5.22;;;27.40;59.50;;;;;;1883224;74;21091;-70
2023/01/20 07:06:03;;;;;;;8.50;5.03;;;27.50;59.00;;;;;;1941675;73;21239;-72
2023/01/20 07:08:34;;;;;;;27.58;6.65;;;27.50;60.10;;;;;;1947913;71;21123;-71
2023/01/20 07:11:05;;;;;;;18.27;6.22;;;27.60;61.80;;;;;;1950607;73;21070;-69
2023/01/20 07:13:37;;;;;;;10.95;5.00;;;27.60;61.00;;;;;;1939234;72;21208;-69
2023/01/20 07:16:09;;;;;;;7.60;4.22;;;27.60;58.80;;;;;;1938858;73;21118;-70
2023/01/20 07:18:50;;;;;;;7.42;4.20;;;27.60;58.10;;;;;;1942292;73;21121;-71
2023/01/20 07:21:22;;;;;;;7.55;4.10;;;27.70;57.60;;;;;;1942749;73;21610;-69
2023/01/20 07:23:55;;;;;;;6.90;4.30;;;27.70;57.50;;;;;;1957087;71;21160;-69
2023/01/20 07:26:32;;;;;;;8.73;4.20;;;27.70;58.20;;;;;;1957643;71;21713;-69
2023/01/20 07:29:04;;;;;;;6.87;4.12;;;27.70;57.90;;;;;;1921180;73;21555;-69
2023/01/20 07:31:35;;;;;;;9.88;4.28;;;27.70;57.20;;;;;;1942862;71;21056;-70
2023/01/20 07:34:06;;;;;;;5.25;3.90;;;27.60;57.80;;;;;;1959749;71;21612;-68
2023/01/20 07:36:38;;;;;;;7.33;4.15;;;27.60;57.60;;;;;;1948139;70;21117;-70
2023/01/20 07:39:14;;;;;;;6.60;4.12;;;27.70;57.60;;;;;;1951726;71;21122;-70
2023/01/20 07:41:47;;;;;;;7.27;3.73;;;27.60;58.00;;;;;;1949942;73;21041;-69
2023/01/20 07:44:17;;;;;;;7.80;4.15;;;27.60;57.70;;;;;;1954631;72;21324;-70
2023/01/20 07:46:50;;;;;;;5.72;4.33;;;27.60;58.00;;;;;;1953193;70;21155;-69
2023/01/20 07:49:21;;;;;;;7.50;3.72;;;27.50;56.40;;;;;;1948501;73;21113;-69
2023/01/20 07:51:52;;;;;;;5.65;3.87;;;27.50;56.90;;;;;;1958149;72;21200;-70
2023/01/20 07:54:23;;;;;;;7.12;4.00;;;27.50;56.70;;;;;;1952918;70;21122;-69
2023/01/20 07:56:54;;;;;;;6.50;4.10;;;27.50;56.60;;;;;;1947424;73;21119;-69
2023/01/20 07:59:25;;;;;;;4.70;3.50;;;27.40;56.70;;;;;;1942879;73;21137;-69
2023/01/20 08:01:57;;;;;;;5.03;3.92;;;27.40;56.60;;;;;;1909293;73;21668;-70
2023/01/20 08:04:28;;;;;;;5.58;3.77;;;27.40;56.70;;;;;;1951872;71;21126;-70
2023/01/20 08:06:59;;;;;;;7.95;3.58;;;27.50;56.20;;;;;;1949176;72;21580;-70
2023/01/20 08:09:30;;;;;;;6.83;3.70;;;27.50;56.50;;;;;;1975017;70;21061;-69
2023/01/20 08:12:01;;;;;;;6.85;3.37;;;27.50;55.90;;;;;;1948621;71;21149;-69
2023/01/20 08:14:32;;;;;;;6.17;4.17;;;27.50;55.10;;;;;;1954727;73;21181;-69
2023/01/20 08:17:05;;;;;;;4.58;3.72;;;27.40;54.90;;;;;;1966437;71;21086;-69
2023/01/20 08:19:35;;;;;;;6.45;4.03;;;27.40;55.80;;;;;;1963864;71;21170;-70
2023/01/20 08:22:07;;;;;;;6.10;4.12;;;27.40;55.80;;;;;;1953692;71;21086;-69
2023/01/20 08:24:38;;;;;;;6.72;4.53;;;27.40;55.70;;;;;;1961949;71;21136;-69
2023/01/20 08:27:09;;;;;;;9.25;4.25;;;27.30;55.70;;;;;;1955278;71;21106;-69
2023/01/20 08:29:40;;;;;;;7.37;4.47;;;27.30;55.90;;;;;;1936990;72;21660;-70
2023/01/20 08:32:11;;;;;;;6.53;3.85;;;27.30;56.10;;;;;;1961433;71;21189;-69
2023/01/20 08:34:42;;;;;;;8.65;3.77;;;27.30;55.50;;;;;;1951199;71;21176;-70
2023/01/20 08:37:13;;;;;;;5.75;4.03;;;27.30;55.80;;;;;;1960157;71;21138;-69
2023/01/20 08:39:44;;;;;;;8.20;4.33;;;27.30;56.30;;;;;;1964039;71;21114;-69
2023/01/20 08:42:15;;;;;;;7.50;4.15;;;27.30;56.60;;;;;;1953183;71;21655;-70
2023/01/20 08:44:46;;;;;;;5.47;4.05;;;27.30;56.50;;;;;;1951510;71;21110;-69
2023/01/20 08:47:17;;;;;;;9.10;4.40;;;27.20;56.10;;;;;;1943900;71;21597;-69
2023/01/20 08:49:49;;;;;;;11.55;4.70;;;27.20;56.60;;;;;;1959000;71;21136;-70
2023/01/20 08:52:21;;;;;;;8.05;4.50;;;27.20;55.80;;;;;;1966433;71;21666;-71
2023/01/20 08:54:53;;;;;;;7.97;4.45;;;27.20;55.60;;;;;;1956034;71;21031;-71
2023/01/20 08:57:26;;;;;;;7.58;4.40;;;27.30;56.00;;;;;;1959412;71;21193;-70
2023/01/20 08:59:57;;;;;;;7.58;4.80;;;27.30;55.80;;;;;;1962350;71;21045;-71
2023/01/20 09:02:33;;;;;;;7.03;4.10;;;27.20;55.90;;;;;;1950355;71;21641;-69
2023/01/20 09:05:03;;;;;;;11.15;4.87;;;27.30;56.00;;;;;;1956301;71;21198;-69
2023/01/20 09:07:35;;;;;;;9.38;5.03;;;27.30;55.70;;;;;;1953717;71;21121;-70
2023/01/20 09:10:14;;;;;;;11.63;5.00;;;27.30;55.60;;;;;;1964067;71;21553;-70
2023/01/20 09:12:48;;;;;;;10.32;5.37;;;27.20;55.90;;;;;;1953682;71;22389;-70
2023/01/20 09:15:19;;;;;;;7.47;4.67;;;27.20;56.50;;;;;;1965170;71;21157;-70
2023/01/20 09:17:52;;;;;;;10.08;5.00;;;27.10;56.40;;;;;;1954659;71;21056;-70
2023/01/20 09:20:23;;;;;;;8.85;4.72;;;27.10;56.50;;;;;;1938554;72;21143;-69
2023/01/20 09:22:54;;;;;;;9.13;4.87;;;27.10;56.60;;;;;;1953211;71;21166;-70
2023/01/20 09:25:26;;;;;;;10.75;4.72;;;27.10;56.40;;;;;;1950129;72;21107;-69
2023/01/20 09:27:58;;;;;;;9.55;4.83;;;27.10;56.50;;;;;;1955492;72;21196;-69
2023/01/20 09:30:29;;;;;;;7.47;4.87;;;27.10;56.60;;;;;;1979077;71;21269;-69
2023/01/20 09:33:01;;;;;;;10.65;5.30;;;27.10;57.00;;;;;;1957664;71;21063;-70
2023/01/20 09:35:32;;;;;;;11.90;5.10;;;27.20;56.70;;;;;;1976111;70;21052;-68
2023/01/20 09:44:21;;;;;;;7.90;4.45;;;27.10;56.80;;;;;;1956759;72;21471;-69
2023/01/20 09:47:19;;;;;;;11.93;4.58;;;27.10;56.60;;;;;;1958131;71;22061;-69
2023/01/20 09:53:15;;;;;;;5.08;4.03;;;27.10;57.00;;;;;;1949241;71;21725;-69
2023/01/20 09:55:57;;;;;;;7.05;5.03;;;27.10;56.30;;;;;;1952410;73;21421;-69
2023/01/20 09:58:33;;;;;;;9.45;4.78;;;27.10;56.90;;;;;;1940200;72;21220;-69
2023/01/20 10:01:17;;;;;;;8.43;4.90;;;27.00;56.60;;;;;;1946035;71;21236;-71
2023/01/20 10:04:14;;;;;;;6.85;5.20;;;27.00;57.00;;;;;;1960600;71;21140;-69
2023/01/20 10:07:05;;;;;;;8.68;5.42;;;26.90;57.10;;;;;;1949489;70;21228;-69
2023/01/20 10:09:44;;;;;;;8.63;5.08;;;26.80;57.00;;;;;;1964858;72;21052;-68
2023/01/20 10:12:35;;;;;;;7.92;5.20;;;26.80;57.90;;;;;;1959050;71;21102;-69
2023/01/20 10:15:11;;;;;;;7.80;5.60;;;26.70;58.00;;;;;;1957940;71;21618;-70
2023/01/20 10:17:51;;;;;;;8.25;5.75;;;26.60;57.90;;;;;;1984923;70;21033;-69
2023/01/20 10:20:30;;;;;;;8.08;5.50;;;26.60;58.30;;;;;;1959051;71;21555;-69
2023/01/20 10:23:13;;;;;;;8.10;5.60;;;26.50;58.20;;;;;;1960384;71;21932;-69
2023/01/20 10:25:49;;;;;;;8.28;5.37;;;26.50;58.20;;;;;;1962358;72;21076;-68
2023/01/20 10:28:28;;;;;;;7.08;5.35;;;26.50;58.20;;;;;;1983447;70;21069;-69
2023/01/20 10:31:05;;;;;;;8.48;5.58;;;26.50;58.00;;;;;;1988323;70;21637;-69
2023/01/20 10:33:43;;;;;;;11.38;5.80;;;26.40;58.10;;;;;;1988361;70;21187;-69
2023/01/20 10:36:31;;;;;;;7.97;4.70;;;26.40;58.40;;;;;;1957289;72;21320;-69
2023/01/20 10:39:29;;;;;;;8.35;5.33;;;26.30;58.40;;;;;;1950048;73;21090;-69
2023/01/20 10:42:06;;;;;;;12.35;6.80;;;26.30;58.60;;;;;;1946711;73;21031;-70
2023/01/20 10:44:41;;;;;;;10.32;6.72;;;26.20;58.40;;;;;;1958430;72;21622;-69
2023/01/20 10:47:18;;;;;;;15.43;10.25;;;26.20;58.70;;;;;;1940105;72;21673;-69
2023/01/20 10:49:52;;;;;;;20.92;11.68;;;26.20;58.50;;;;;;1944334;72;21142;-69
2023/01/20 10:52:40;;;;;;;19.37;11.80;;;26.10;58.70;;;;;;1916017;72;21131;-69
2023/01/20 10:55:19;;;;;;;13.90;9.65;;;26.10;58.90;;;;;;1950864;72;21095;-69
2023/01/20 10:57:53;;;;;;;13.03;9.13;;;26.10;58.90;;;;;;1971968;72;21096;-70
2023/01/20 11:00:31;;;;;;;12.93;7.80;;;26.10;59.10;;;;;;1968891;71;21156;-69
2023/01/20 11:03:05;;;;;;;14.80;8.55;;;26.00;59.00;;;;;;1957341;71;21198;-69
2023/01/20 11:05:41;;;;;;;15.35;8.90;;;26.00;59.10;;;;;;1982859;70;21140;-69
2023/01/20 11:08:17;;;;;;;13.10;8.88;;;25.90;59.10;;;;;;1952336;72;21152;-69
2023/01/20 11:10:50;;;;;;;14.27;9.60;;;25.90;59.30;;;;;;1933210;72;21179;-70
2023/01/20 11:13:41;;;;;;;12.95;8.45;;;25.90;59.40;;;;;;1924100;72;21127;-70
2023/01/20 11:16:19;;;;;;;15.43;10.08;;;25.80;59.50;;;;;;1906890;75;21146;-70
2023/01/20 11:19:02;;;;;;;16.05;9.90;;;25.80;59.70;;;;;;1904198;73;21147;-70
2023/01/20 11:21:36;;;;;;;15.50;8.90;;;25.70;59.70;;;;;;1907566;74;21245;-70
2023/01/20 11:24:26;;;;;;;15.38;9.40;;;25.70;59.90;;;;;;1904870;73;21161;-70
2023/01/20 11:27:08;;;;;;;14.68;9.30;;;25.70;59.90;;;;;;1843732;76;21055;-69
2023/01/20 11:29:42;;;;;;;13.35;8.98;;;25.70;60.00;;;;;;1886377;74;21135;-70
2023/01/20 11:32:31;;;;;;;17.45;9.78;;;25.60;60.30;;;;;;1912329;73;21134;-70
2023/01/20 11:35:23;;;;;;;13.90;8.68;;;25.60;60.30;;;;;;1925778;73;21050;-71
2023/01/20 11:37:54;;;;;;;18.57;9.08;;;25.60;60.30;;;;;;1927907;74;21651;-68
2023/01/20 11:40:29;;;;;;;15.55;9.58;;;25.50;60.60;;;;;;1929373;73;21046;-70
2023/01/20 11:43:03;;;;;;;15.03;9.60;;;25.50;60.80;;;;;;1927410;73;21599;-70
2023/01/20 11:45:35;;;;;;;14.73;9.83;;;25.40;61.20;;;;;;1928782;73;21070;-69
2023/01/20 11:48:15;;;;;;;16.30;10.18;;;25.40;60.70;;;;;;1925623;73;21211;-68
2023/01/20 11:50:57;;;;;;;14.33;10.32;;;25.40;60.50;;;;;;1926249;73;21157;-70
2023/01/20 11:53:33;;;;;;;15.15;10.63;;;25.40;60.80;;;;;;1924521;73;21110;-69
2023/01/20 11:56:18;;;;;;;13.70;9.65;;;25.40;60.90;;;;;;1932039;73;21140;-68
2023/01/20 11:58:54;;;;;;;16.42;9.65;;;25.30;61.00;;;;;;1928496;73;21604;-71
2023/01/20 12:01:50;;;;;;;15.35;9.70;;;25.40;61.30;;;;;;1923330;73;21667;-70
2023/01/20 12:04:35;;;;;;;14.55;9.83;;;25.30;61.30;;;;;;1924040;73;21151;-71
2023/01/20 12:07:09;;;;;;;16.12;9.90;;;25.30;61.60;;;;;;1922943;73;21102;-71
2023/01/20 12:09:43;;;;;;;13.08;9.45;;;25.30;62.00;;;;;;1921645;73;21106;-72
2023/01/20 12:12:19;;;;;;;17.10;10.23;;;25.20;61.90;;;;;;1879846;75;21132;-69
2023/01/20 12:14:58;;;;;;;16.25;10.38;;;25.20;62.20;;;;;;1875026;74;22097;-70
2023/01/20 12:18:03;;;;;;;15.15;10.13;;;25.10;62.30;;;;;;1873019;74;21156;-71
2023/01/20 12:20:47;;;;;;;22.17;11.88;;;25.10;63.50;;;;;;1896334;74;21124;-72
2023/01/20 12:23:51;;;;;;;21.07;12.70;;;25.10;62.70;;;;;;1900029;74;21131;-71
2023/01/20 12:26:23;;;;;;;19.77;13.43;;;25.10;62.70;;;;;;1900956;74;21585;-70
2023/01/20 12:29:03;;;;;;;24.25;15.43;;;25.10;62.90;;;;;;1892645;74;21110;-70
2023/01/20 12:31:34;;;;;;;35.92;19.70;;;25.00;62.80;;;;;;1896337;74;21418;-70
2023/01/20 12:34:08;;;;;;;26.60;16.42;;;25.00;63.00;;;;;;1896102;73;21142;-69
2023/01/20 12:36:54;;;;;;;28.73;16.90;;;25.00;63.30;;;;;;1897443;73;21122;-71
2023/01/20 12:39:30;;;;;;;28.23;17.07;;;25.00;63.50;;;;;;1910843;73;21148;-70
2023/01/20 12:42:22;;;;;;;24.90;16.27;;;25.00;63.40;;;;;;1898233;74;21124;-71
2023/01/20 12:44:58;;;;;;;24.25;15.35;;;24.90;63.50;;;;;;1900210;75;21161;-71
2023/01/20 12:47:43;;;;;;;25.23;15.58;;;24.90;63.80;;;;;;1863119;75;21115;-73
2023/01/20 12:50:17;;;;;;;24.65;15.95;;;24.90;63.80;;;;;;1886521;74;21121;-72
2023/01/20 12:53:09;;;;;;;25.27;15.95;;;24.80;64.00;;;;;;1844766;74;21144;-72
2023/01/20 12:55:55;;;;;;;27.05;15.90;;;24.80;64.10;;;;;;1851240;76;21208;-71
2023/01/20 12:58:48;;;;;;;;;;;24.80;64.10;;;;;;1848448;75;21825;-70
2023/01/20 13:01:36;;;;;;;24.67;15.28;;;24.80;64.30;;;;;;1899420;74;20228;-70
2023/01/20 13:04:32;;;;;;;27.58;15.83;;;24.80;64.60;;;;;;1901468;73;21170;-70
2023/01/20 13:07:11;;;;;;;28.05;16.35;;;24.80;64.70;;;;;;1898645;74;21235;-71
2023/01/20 13:09:47;;;;;;;24.20;15.18;;;24.80;64.90;;;;;;1897149;74;21134;-71
2023/01/20 13:12:36;;;;;;;21.75;14.98;;;24.70;64.90;;;;;;1932358;73;21057;-71
2023/01/20 13:15:25;;;;;;;24.27;15.50;;;24.70;65.00;;;;;;1929130;72;21127;-70
2023/01/20 13:18:18;;;;;;;25.80;16.30;;;24.70;65.10;;;;;;1965783;71;21217;-71
2023/01/20 13:20:50;;;;;;;23.98;15.55;;;24.70;65.40;;;;;;1953386;71;21560;-71
2023/01/20 13:23:27;;;;;;;25.00;16.45;;;24.60;65.50;;;;;;1960974;71;21574;-69
2023/01/20 13:26:05;;;;;;;22.58;14.68;;;24.60;65.70;;;;;;1956043;71;21586;-70
2023/01/20 13:28:33;;;;;;;24.05;14.60;;;24.60;65.80;;;;;;1956997;71;21537;-70
2023/01/20 13:31:24;;;;;;;26.95;16.00;;;24.50;65.90;;;;;;1964838;71;21596;-72